Time;durP1;ratioP1;P1;durP2;ratioP2;P2;SDS_P1;SDS_P2;PMS_P1;PMS_P2;Temp;Humidity;BMP_temperature;BMP_pressure;BME280_temperature;BME280_humidity;BME280_pressure;Samples;Min_cycle;Max_cycle;Signal;HPM_P1;HPM_P2
2022/08/26 00:01:50;;;;;;;;;;;;;;;11.37;100.00;99454.84;5058892;28;19967;-82
2022/08/26 00:04:18;;;;;;;;;;;;;;;11.81;100.00;99448.25;5058717;28;19924;-82
2022/08/26 00:06:45;;;;;;;;;;;;;;;11.32;100.00;99458.09;5075728;28;19931;-82
2022/08/26 00:09:12;;;;;;;;;;;;;;;11.69;100.00;99458.00;5058678;28;19928;-82
2022/08/26 00:11:40;;;;;;;;;;;;;;;11.96;100.00;99460.84;5058958;28;19970;-82
2022/08/26 00:14:07;;;;;;;;;;;;;;;11.99;100.00;99458.00;5074910;28;19924;-82
2022/08/26 00:16:34;;;;;;;;;;;;;;;11.97;100.00;99468.00;5075524;28;19924;-82
2022/08/26 00:19:01;;;;;;;;;;;;;;;11.93;100.00;99456.88;5076283;28;19924;-82
2022/08/26 00:21:28;;;;;;;;;;;;;;;11.97;100.00;99462.41;5074858;28;19929;-82
2022/08/26 00:23:55;;;;;;;;;;;;;;;12.15;100.00;99466.53;5058893;28;19924;-82
2022/08/26 00:26:22;;;;;;;;;;;;;;;12.04;100.00;99460.28;5075928;28;19929;-82
2022/08/26 00:28:49;;;;;;;;;;;;;;;12.03;100.00;99458.72;5058219;28;20351;-82
2022/08/26 00:31:17;;;;;;;;;;;;;;;11.66;100.00;99458.09;5075983;28;19971;-82
2022/08/26 00:33:45;;;;;;;;;;;;;;;11.68;100.00;99458.44;5073644;28;19924;-82
2022/08/26 00:36:12;;;;;;;;;;;;;;;11.87;100.00;99447.38;5075416;28;20010;-82
2022/08/26 00:38:39;;;;;;;;;;;;;;;11.76;100.00;99445.94;5057963;28;19928;-82
2022/08/26 00:41:06;;;;;;;;;;;;;;;11.61;100.00;99450.91;5075935;28;20295;-82
2022/08/26 00:43:35;;;;;;;;;;;;;;;10.91;100.00;99451.81;5074298;28;19931;-82
2022/08/26 00:46:11;;;;;;;;;;;;;;;10.90;100.00;99455.81;5074619;28;19928;-82
2022/08/26 00:48:41;;;;;;;;;;;;;;;11.33;100.00;99448.47;5074328;28;19963;-82
2022/08/26 00:51:13;;;;;;;;;;;;;;;11.26;100.00;99454.19;5074127;28;20022;-82
2022/08/26 00:53:58;;;;;;;;;;;;;;;11.41;100.00;99451.97;5075776;28;20245;-82
2022/08/26 00:56:42;;;;;;;;;;;;;;;11.51;100.00;99453.88;5074089;28;19925;-82
2022/08/26 00:59:10;;;;;;;;;;;;;;;11.51;100.00;99459.47;5073855;28;19925;-82
2022/08/26 01:01:41;;;;;;;;;;;;;;;11.53;100.00;99460.63;5074099;28;20372;-82
2022/08/26 01:04:10;;;;;;;;;;;;;;;11.15;100.00;99459.09;5057629;28;19969;-82
2022/08/26 01:06:37;;;;;;;;;;;;;;;11.03;100.00;99467.25;5073824;28;19931;-82
2022/08/26 01:09:04;;;;;;;;;;;;;;;11.36;100.00;99458.84;5073812;28;19928;-82
2022/08/26 01:11:31;;;;;;;;;;;;;;;11.53;100.00;99468.22;5073671;28;20019;-82
2022/08/26 01:14:01;;;;;;;;;;;;;;;11.47;100.00;99467.91;5073744;28;19925;-82
2022/08/26 01:16:29;;;;;;;;;;;;;;;11.33;100.00;99467.28;5073700;28;20399;-82
2022/08/26 01:18:58;;;;;;;;;;;;;;;10.46;100.00;99467.84;5075098;28;19924;-82
2022/08/26 01:21:35;;;;;;;;;;;;;;;10.01;100.00;99471.75;5073468;28;20386;-82
2022/08/26 01:24:04;;;;;;;;;;;;;;;10.62;100.00;99481.25;5090893;28;20387;-82
2022/08/26 01:26:33;;;;;;;;;;;;;;;10.82;100.00;99479.47;5074894;28;19925;-82
2022/08/26 01:29:02;;;;;;;;;;;;;;;10.94;100.00;99470.53;5057360;28;19924;-82
2022/08/26 01:31:33;;;;;;;;;;;;;;;10.93;100.00;99474.56;5073628;28;19982;-82
2022/08/26 01:34:09;;;;;;;;;;;;;;;11.09;100.00;99471.19;5074694;28;19925;-82
2022/08/26 01:36:37;;;;;;;;;;;;;;;11.14;100.00;99476.31;5056775;28;20016;-82
2022/08/26 01:39:06;;;;;;;;;;;;;;;10.93;100.00;99475.31;5073788;28;19929;-82
2022/08/26 01:41:33;;;;;;;;;;;;;;;10.30;100.00;99475.19;5073113;28;20298;-82
2022/08/26 01:44:02;;;;;;;;;;;;;;;10.04;100.00;99472.94;5073293;28;19932;-82
2022/08/26 01:46:30;;;;;;;;;;;;;;;10.48;100.00;99478.59;5056980;28;19938;-81
2022/08/26 01:48:58;;;;;;;;;;;;;;;10.79;100.00;99488.66;5073484;28;19931;-81
2022/08/26 01:51:26;;;;;;;;;;;;;;;10.77;100.00;99479.91;5073301;28;19931;-82
2022/08/26 01:53:54;;;;;;;;;;;;;;;10.75;100.00;99482.34;5073475;28;20364;-82
2022/08/26 01:56:22;;;;;;;;;;;;;;;10.76;100.00;99492.28;5072919;28;19924;-82
2022/08/26 01:58:52;;;;;;;;;;;;;;;11.01;100.00;99486.44;5040083;28;20474;-82
2022/08/26 02:01:22;;;;;;;;;;;;;;;11.19;100.00;99487.84;5072911;28;20020;-82
2022/08/26 02:04:08;;;;;;;;;;;;;;;11.15;100.00;99481.47;5056633;28;19930;-81
2022/08/26 02:06:36;;;;;;;;;;;;;;;11.08;100.00;99478.78;5074041;28;19925;-81
2022/08/26 02:09:04;;;;;;;;;;;;;;;11.12;100.00;99487.91;5072995;28;19924;-82
2022/08/26 02:11:32;;;;;;;;;;;;;;;11.02;100.00;99483.25;5073639;28;19954;-82
2022/08/26 02:14:02;;;;;;;;;;;;;;;10.81;100.00;99483.47;5056777;28;19924;-82
2022/08/26 02:16:33;;;;;;;;;;;;;;;11.08;100.00;99487.16;5074052;28;19925;-82
2022/08/26 02:19:01;;;;;;;;;;;;;;;11.20;100.00;99489.41;5074064;28;19963;-82
2022/08/26 02:21:29;;;;;;;;;;;;;;;11.28;100.00;99484.53;5073035;28;19928;-82
2022/08/26 02:24:06;;;;;;;;;;;;;;;11.29;100.00;99484.13;5073102;28;19928;-82
2022/08/26 02:26:33;;;;;;;;;;;;;;;11.07;100.00;99482.78;5055848;28;19925;-82
2022/08/26 02:29:02;;;;;;;;;;;;;;;10.95;100.00;99486.09;5089865;28;19924;-82
2022/08/26 02:31:29;;;;;;;;;;;;;;;11.10;100.00;99483.94;5072995;28;20027;-82
2022/08/26 02:34:15;;;;;;;;;;;;;;;11.34;100.00;99482.84;5056336;28;20390;-82
2022/08/26 02:36:42;;;;;;;;;;;;;;;11.52;100.00;99477.81;5072650;28;19933;-82
2022/08/26 02:39:10;;;;;;;;;;;;;;;11.47;100.00;99481.88;5072514;28;19924;-82
2022/08/26 02:41:37;;;;;;;;;;;;;;;10.78;100.00;99476.69;5073341;28;19928;-82
2022/08/26 02:44:05;;;;;;;;;;;;;;;10.27;100.00;99476.00;5039695;28;19925;-82
2022/08/26 02:46:33;;;;;;;;;;;;;;;10.64;100.00;99487.22;5106269;28;20306;-82
2022/08/26 02:49:00;;;;;;;;;;;;;;;10.65;100.00;99486.00;5072773;28;19930;-82
2022/08/26 02:51:27;;;;;;;;;;;;;;;11.02;100.00;99477.66;5073822;28;19931;-82
2022/08/26 02:53:54;;;;;;;;;;;;;;;11.11;100.00;99480.75;5073651;28;19947;-82
2022/08/26 02:56:21;;;;;;;;;;;;;;;10.94;100.00;99476.13;5073613;28;19924;-82
2022/08/26 02:58:49;;;;;;;;;;;;;;;11.10;100.00;99479.16;5072504;28;19931;-82
2022/08/26 03:01:20;;;;;;;;;;;;;;;11.08;100.00;99480.78;5072454;28;20383;-82
2022/08/26 03:03:48;;;;;;;;;;;;;;;11.10;100.00;99472.75;5106403;28;19978;-82
2022/08/26 03:06:15;;;;;;;;;;;;;;;11.12;100.00;99459.94;5072416;28;20403;-82
2022/08/26 03:08:42;;;;;;;;;;;;;;;11.02;100.00;99474.06;5072223;28;19924;-82
2022/08/26 03:11:10;;;;;;;;;;;;;;;10.85;100.00;99467.44;5072092;28;19931;-82
2022/08/26 03:13:39;;;;;;;;;;;;;;;10.67;100.00;99472.44;5055871;28;19929;-83
2022/08/26 03:16:06;;;;;;;;;;;;;;;10.33;100.00;99479.94;5072101;28;19955;-82
2022/08/26 03:18:34;;;;;;;;;;;;;;;10.12;100.00;99480.09;5075898;28;19929;-82
2022/08/26 03:21:09;;;;;;;;;;;;;;;10.42;100.00;99474.69;5075794;28;19931;-82
2022/08/26 03:23:37;;;;;;;;;;;;;;;10.39;100.00;99472.69;5076781;28;19975;-82
2022/08/26 03:26:06;;;;;;;;;;;;;;;10.67;100.00;99484.41;5075655;28;20441;-82
2022/08/26 03:28:33;;;;;;;;;;;;;;;11.09;100.00;99474.75;5077380;28;19970;-82
2022/08/26 03:31:00;;;;;;;;;;;;;;;11.43;100.00;99472.75;5059735;28;19924;-82
2022/08/26 03:33:27;;;;;;;;;;;;;;;11.56;100.00;99472.97;5043091;28;20021;-82
2022/08/26 03:35:54;;;;;;;;;;;;;;;11.42;100.00;99473.94;5076972;28;19924;-82
2022/08/26 03:38:23;;;;;;;;;;;;;;;11.35;100.00;99465.66;5075479;28;20015;-82
2022/08/26 03:40:51;;;;;;;;;;;;;;;11.68;100.00;99475.22;5075776;28;20292;-82
2022/08/26 03:43:18;;;;;;;;;;;;;;;11.65;100.00;99465.69;5059154;28;19924;-82
2022/08/26 03:45:45;;;;;;;;;;;;;;;11.56;100.00;99468.16;5075885;28;19924;-83
2022/08/26 03:48:12;;;;;;;;;;;;;;;11.12;100.00;99471.13;5058363;28;19924;-83
2022/08/26 03:50:41;;;;;;;;;;;;;;;11.28;100.00;99471.34;5074734;28;19931;-83
2022/08/26 03:53:08;;;;;;;;;;;;;;;11.08;100.00;99459.19;5058050;28;19931;-82
2022/08/26 03:55:35;;;;;;;;;;;;;;;10.98;100.00;99466.50;5074994;28;19925;-82
2022/08/26 03:58:03;;;;;;;;;;;;;;;10.68;100.00;99469.22;5058330;28;19928;-82
2022/08/26 04:00:30;;;;;;;;;;;;;;;11.22;100.00;99463.81;5075048;28;20345;-83
2022/08/26 04:02:58;;;;;;;;;;;;;;;11.50;100.00;99455.84;5075160;28;19932;-83
2022/08/26 04:05:25;;;;;;;;;;;;;;;11.43;100.00;99464.38;5074960;28;19956;-83
2022/08/26 04:07:53;;;;;;;;;;;;;;;11.02;100.00;99460.06;5074862;28;19935;-82
2022/08/26 04:10:23;;;;;;;;;;;;;;;10.39;100.00;99461.53;5076344;28;19925;-82
2022/08/26 04:12:50;;;;;;;;;;;;;;;10.87;100.00;99465.03;5074999;28;20406;-82
2022/08/26 04:15:18;;;;;;;;;;;;;;;11.32;100.00;99452.50;5058188;28;20437;-82
2022/08/26 04:17:46;;;;;;;;;;;;;;;11.42;100.00;99450.78;5058152;28;19931;-82
2022/08/26 04:20:16;;;;;;;;;;;;;;;11.79;100.00;99457.09;5058322;28;19935;-82
2022/08/26 04:22:44;;;;;;;;;;;;;;;11.89;100.00;99456.13;5058187;28;20334;-83
2022/08/26 04:25:12;;;;;;;;;;;;;;;12.04;100.00;99449.09;5077098;28;19924;-83
2022/08/26 04:27:39;;;;;;;;;;;;;;;12.04;100.00;99449.09;5057972;28;19978;-82
2022/08/26 04:30:07;;;;;;;;;;;;;;;12.00;100.00;99451.16;5074634;28;19924;-82
2022/08/26 04:32:34;;;;;;;;;;;;;;;11.49;100.00;99443.09;5057922;28;20005;-83
2022/08/26 04:35:02;;;;;;;;;;;;;;;11.71;100.00;99447.19;5057813;28;19924;-83
2022/08/26 04:37:30;;;;;;;;;;;;;;;11.64;100.00;99455.72;5075550;28;19929;-83
2022/08/26 04:39:57;;;;;;;;;;;;;;;11.99;100.00;99451.59;5057910;28;19955;-83
2022/08/26 04:42:24;;;;;;;;;;;;;;;12.14;100.00;99442.53;5074282;28;20338;-83
2022/08/26 04:44:51;;;;;;;;;;;;;;;12.27;100.00;99454.72;5057750;28;20462;-83
2022/08/26 04:47:18;;;;;;;;;;;;;;;12.40;100.00;99447.28;5074486;28;20379;-83
2022/08/26 04:49:45;;;;;;;;;;;;;;;11.82;100.00;99447.84;5057665;28;19924;-83
2022/08/26 04:52:12;;;;;;;;;;;;;;;11.04;100.00;99447.28;5073972;28;20299;-82
2022/08/26 04:54:39;;;;;;;;;;;;;;;11.09;100.00;99448.81;5057593;28;19925;-82
2022/08/26 04:57:06;;;;;;;;;;;;;;;11.71;100.00;99447.19;5057330;28;19925;-82
2022/08/26 04:59:34;;;;;;;;;;;;;;;12.12;100.00;99442.16;5074072;28;20009;-83
2022/08/26 05:02:05;;;;;;;;;;;;;;;12.44;100.00;99438.81;5057418;28;19972;-83
2022/08/26 05:04:32;;;;;;;;;;;;;;;12.63;100.00;99447.28;5075043;28;20403;-82
2022/08/26 05:07:00;;;;;;;;;;;;;;;12.71;100.00;99451.53;5073846;28;19924;-83
2022/08/26 05:09:27;;;;;;;;;;;;;;;12.77;100.00;99444.22;5074012;28;20305;-83
2022/08/26 05:11:54;;;;;;;;;;;;;;;12.91;100.00;99440.34;5075206;28;20287;-83
2022/08/26 05:14:22;;;;;;;;;;;;;;;12.83;100.00;99444.50;5055471;28;19932;-83
2022/08/26 05:16:49;;;;;;;;;;;;;;;12.83;100.00;99446.53;5074714;28;19978;-83
2022/08/26 05:19:18;;;;;;;;;;;;;;;12.67;100.00;99441.63;5057122;28;19924;-82
2022/08/26 05:21:47;;;;;;;;;;;;;;;12.42;100.00;99447.66;5073675;28;20364;-81
2022/08/26 05:24:14;;;;;;;;;;;;;;;12.34;100.00;99451.78;5057694;28;19929;-82
2022/08/26 05:26:42;;;;;;;;;;;;;;;12.72;100.00;99453.13;5074943;28;19955;-81
2022/08/26 05:29:09;;;;;;;;;;;;;;;12.70;100.00;99454.78;5073858;28;19931;-84
2022/08/26 05:31:37;;;;;;;;;;;;;;;12.46;100.00;99445.56;5057429;28;19969;-82
2022/08/26 05:34:05;;;;;;;;;;;;;;;11.88;100.00;99462.94;5073050;28;19959;-82
2022/08/26 05:36:33;;;;;;;;;;;;;;;11.60;100.00;99457.72;5073321;28;19956;-82
2022/08/26 05:39:02;;;;;;;;;;;;;;;12.02;100.00;99459.94;5074585;28;20015;-82
2022/08/26 05:41:31;;;;;;;;;;;;;;;12.42;100.00;99452.47;5072528;28;20584;-82
2022/08/26 05:43:59;;;;;;;;;;;;;;;12.67;100.00;99462.03;5074707;28;20418;-83
2022/08/26 05:46:27;;;;;;;;;;;;;;;12.83;100.00;99452.91;5073087;28;20390;-83
2022/08/26 05:48:54;;;;;;;;;;;;;;;12.92;100.00;99455.16;5056499;28;19928;-83
2022/08/26 05:51:22;;;;;;;;;;;;;;;13.02;100.00;99440.16;5073109;28;19925;-83
2022/08/26 05:53:52;;;;;;;;;;;;;;;12.90;100.00;99449.19;5056814;28;20074;-83
2022/08/26 05:56:20;;;;;;;;;;;;;;;12.99;100.00;99441.00;5073064;28;19925;-83
2022/08/26 05:58:47;;;;;;;;;;;;;;;13.02;100.00;99442.97;5072877;28;19924;-83
2022/08/26 06:01:19;;;;;;;;;;;;;;;13.09;100.00;99445.63;5073001;28;19935;-83
2022/08/26 06:03:47;;;;;;;;;;;;;;;12.49;100.00;99449.56;5072696;28;19931;-83
2022/08/26 06:06:16;;;;;;;;;;;;;;;12.71;100.00;99450.75;5056516;28;19932;-83
2022/08/26 06:08:43;;;;;;;;;;;;;;;12.82;100.00;99447.72;5074253;28;20044;-83
2022/08/26 06:11:12;;;;;;;;;;;;;;;12.88;100.00;99452.44;5072851;28;19932;-83
2022/08/26 06:13:40;;;;;;;;;;;;;;;12.77;100.00;99447.03;5073891;28;20015;-82
2022/08/26 06:16:08;;;;;;;;;;;;;;;12.86;100.00;99452.06;5056506;28;19931;-83
2022/08/26 06:18:37;;;;;;;;;;;;;;;12.76;100.00;99453.06;5056063;28;19999;-83
2022/08/26 06:21:23;;;;;;;;;;;;;;;12.99;100.00;99460.63;5056309;28;19929;-83
2022/08/26 06:26:36;;;;;;;;;;;;;;;12.88;100.00;99466.44;5073128;28;20009;-83
2022/08/26 06:29:04;;;;;;;;;;;;;;;12.75;100.00;99471.13;5056423;28;19932;-82
2022/08/26 06:31:32;;;;;;;;;;;;;;;12.71;100.00;99459.94;5055882;28;19925;-83
2022/08/26 06:34:00;;;;;;;;;;;;;;;12.86;100.00;99470.91;5055983;28;19931;-83
2022/08/26 06:36:29;;;;;;;;;;;;;;;12.97;100.00;99479.91;5072491;28;19924;-82
2022/08/26 06:38:58;;;;;;;;;;;;;;;13.13;100.00;99478.00;5056057;28;20380;-83
2022/08/26 06:41:26;;;;;;;;;;;;;;;13.28;100.00;99487.75;5056338;28;19924;-82
2022/08/26 06:43:53;;;;;;;;;;;;;;;13.59;100.00;99479.88;5072200;28;19928;-83
2022/08/26 06:46:20;;;;;;;;;;;;;;;13.93;100.00;99478.28;5072326;28;20054;-83
2022/08/26 06:48:48;;;;;;;;;;;;;;;14.03;100.00;99484.91;5072839;28;20408;-83
2022/08/26 06:51:20;;;;;;;;;;;;;;;14.36;100.00;99475.28;5072750;28;19931;-83
2022/08/26 06:53:48;;;;;;;;;;;;;;;14.39;100.00;99482.84;5059936;28;20023;-83
2022/08/26 06:56:17;;;;;;;;;;;;;;;14.33;100.00;99467.72;5059850;28;19924;-82
2022/08/26 06:58:44;;;;;;;;;;;;;;;14.45;100.00;99476.25;5093360;28;19936;-83
2022/08/26 07:01:15;;;;;;;;;;;;;;;14.70;100.00;99470.00;5059823;28;19924;-83
2022/08/26 07:03:42;;;;;;;;;;;;;;;14.93;100.00;99466.97;5043622;28;20015;-83
2022/08/26 07:06:09;;;;;;;;;;;;;;;15.19;100.00;99467.88;5076578;28;19924;-83
2022/08/26 07:08:37;;;;;;;;;;;;;;;15.14;100.00;99465.59;5076429;28;19928;-86
2022/08/26 07:11:08;;;;;;;;;;;;;;;15.37;100.00;99463.31;5077337;28;19928;-82
2022/08/26 07:13:36;;;;;;;;;;;;;;;15.54;100.00;99464.84;5059880;28;19924;-79
2022/08/26 07:16:04;;;;;;;;;;;;;;;15.61;100.00;99472.31;5076970;28;20306;-79
2022/08/26 07:18:35;;;;;;;;;;;;;;;15.48;100.00;99466.63;5077044;28;19924;-79
2022/08/26 07:21:04;;;;;;;;;;;;;;;15.60;100.00;99465.88;5076026;28;19924;-79
2022/08/26 07:23:32;;;;;;;;;;;;;;;15.53;100.00;99468.91;5077050;28;19928;-79
2022/08/26 07:26:04;;;;;;;;;;;;;;;15.71;100.00;99474.81;5076770;28;19924;-79
2022/08/26 07:28:31;;;;;;;;;;;;;;;16.00;100.00;99467.06;5077106;28;19924;-79
2022/08/26 07:31:02;;;;;;;;;;;;;;;16.13;100.00;99465.03;5079097;28;19924;-79
2022/08/26 07:33:30;;;;;;;;;;;;;;;16.35;100.00;99458.69;5076498;28;19925;-78
2022/08/26 07:35:57;;;;;;;;;;;;;;;16.32;100.00;99466.03;5076703;28;19925;-78
2022/08/26 07:38:24;;;;;;;;;;;;;;;16.59;100.00;99465.56;5076658;28;20098;-78
2022/08/26 07:40:51;;;;;;;;;;;;;;;16.99;100.00;99464.56;5076526;28;19925;-80
2022/08/26 07:43:18;;;;;;;;;;;;;;;17.03;100.00;99455.94;5075999;28;19924;-77
2022/08/26 07:45:47;;;;;;;;;;;;;;;17.13;100.00;99454.81;5075433;28;20272;-77
2022/08/26 07:48:14;;;;;;;;;;;;;;;17.31;100.00;99449.28;5075238;28;20011;-77
2022/08/26 07:50:42;;;;;;;;;;;;;;;17.20;100.00;99451.72;5074821;28;19925;-79
2022/08/26 07:53:09;;;;;;;;;;;;;;;17.19;100.00;99450.13;5076310;28;20005;-78
2022/08/26 07:55:36;;;;;;;;;;;;;;;17.31;100.00;99458.53;5076429;28;19925;-78
2022/08/26 07:58:04;;;;;;;;;;;;;;;17.07;100.00;99457.41;5076158;28;19924;-78
2022/08/26 08:00:31;;;;;;;;;;;;;;;17.39;100.00;99456.22;5074750;28;19936;-78
2022/08/26 08:02:59;;;;;;;;;;;;;;;17.59;100.00;99453.88;5071698;28;20379;-78
2022/08/26 08:05:29;;;;;;;;;;;;;;;17.53;100.00;99447.25;5071426;28;20339;-77
2022/08/26 08:07:55;;;;;;;;;;;;;;;17.88;100.00;99452.34;5070514;28;20438;-77
2022/08/26 08:10:23;;;;;;;;;;;;;;;18.04;100.00;99456.94;5072701;28;20278;-76
2022/08/26 08:12:52;;;;;;;;;;;;;;;18.22;100.00;99454.19;5071334;28;19935;-77
2022/08/26 08:15:23;;;;;;;;;;;;;;;18.49;100.00;99453.53;5070114;28;19924;-77
2022/08/26 08:17:50;;;;;;;;;;;;;;;18.70;100.00;99450.59;5069511;28;19931;-77
2022/08/26 08:20:17;;;;;;;;;;;;;;;18.63;100.00;99444.47;5072248;28;19959;-78
2022/08/26 08:22:44;;;;;;;;;;;;;;;19.06;100.00;99439.31;5070352;28;20459;-78
2022/08/26 08:25:11;;;;;;;;;;;;;;;19.35;100.00;99444.53;5052215;28;20407;-77
2022/08/26 08:27:39;;;;;;;;;;;;;;;19.66;100.00;99443.03;5068742;28;19934;-78
2022/08/26 08:30:07;;;;;;;;;;;;;;;20.04;100.00;99441.69;5068852;28;19939;-78
2022/08/26 08:32:36;;;;;;;;;;;;;;;20.81;100.00;99437.81;5069806;28;19968;-78
2022/08/26 08:35:04;;;;;;;;;;;;;;;21.30;100.00;99432.38;5051025;28;19929;-78
2022/08/26 08:37:32;;;;;;;;;;;;;;;22.82;100.00;99426.16;5068776;28;20446;-79
2022/08/26 08:39:59;;;;;;;;;;;;;;;23.53;100.00;99419.75;5068224;28;20353;-80
2022/08/26 08:42:26;;;;;;;;;;;;;;;24.02;100.00;99419.44;5070428;28;19925;-80
2022/08/26 08:44:56;;;;;;;;;;;;;;;24.54;100.00;99409.44;5070865;28;20295;-81
2022/08/26 08:47:34;;;;;;;;;;;;;;;24.71;100.00;99410.34;5071662;28;19924;-79
2022/08/26 08:50:07;;;;;;;;;;;;;;;25.42;100.00;99409.09;5071708;28;20014;-80
2022/08/26 08:52:35;;;;;;;;;;;;;;;26.08;100.00;99397.72;5070403;28;19924;-79
2022/08/26 08:55:04;;;;;;;;;;;;;;;26.52;100.00;99386.19;5069554;28;19939;-79
2022/08/26 08:57:52;;;;;;;;;;;;;;;23.63;100.00;99397.56;5068977;28;19924;-77
2022/08/26 09:00:23;;;;;;;;;;;;;;;25.55;100.00;99389.34;5068935;28;20303;-77
2022/08/26 09:02:53;;;;;;;;;;;;;;;27.03;100.00;99383.97;5068897;28;19924;-77
2022/08/26 09:05:22;;;;;;;;;;;;;;;27.38;100.00;99381.19;5069503;28;19924;-78
2022/08/26 09:07:52;;;;;;;;;;;;;;;27.42;100.00;99381.69;5069653;28;19924;-77
2022/08/26 09:10:30;;;;;;;;;;;;;;;26.60;100.00;99379.94;5067534;28;19932;-77
2022/08/26 09:12:59;;;;;;;;;;;;;;;26.36;100.00;99366.19;5068600;28;19932;-77
2022/08/26 09:15:39;;;;;;;;;;;;;;;25.69;100.00;99356.84;5100018;28;19925;-77
2022/08/26 09:18:14;;;;;;;;;;;;;;;25.21;100.00;99369.75;5068828;28;19973;-77
2022/08/26 09:20:50;;;;;;;;;;;;;;;24.87;100.00;99368.09;5069054;28;19963;-77
2022/08/26 09:23:17;;;;;;;;;;;;;;;25.35;100.00;99372.41;5070672;28;19925;-78
2022/08/26 09:25:53;;;;;;;;;;;;;;;25.84;100.00;99377.41;5069487;28;19932;-78
2022/08/26 09:28:26;;;;;;;;;;;;;;;25.43;100.00;99370.59;5071168;28;19924;-78
2022/08/26 09:31:13;;;;;;;;;;;;;;;25.50;100.00;99375.81;5070350;28;19963;-77
2022/08/26 09:33:40;;;;;;;;;;;;;;;24.73;100.00;99375.56;5070761;28;20402;-76
2022/08/26 09:36:13;;;;;;;;;;;;;;;25.21;100.00;99376.25;5070134;28;19978;-76
2022/08/26 09:38:41;;;;;;;;;;;;;;;25.34;100.00;99364.34;5068780;28;19924;-76
2022/08/26 09:41:25;;;;;;;;;;;;;;;24.97;100.00;99375.13;5070134;28;19931;-76
2022/08/26 09:44:10;;;;;;;;;;;;;;;24.58;100.00;99374.94;5068759;28;19931;-76
2022/08/26 09:46:44;;;;;;;;;;;;;;;24.12;100.00;99371.53;5067393;28;19924;-76
2022/08/26 09:49:25;;;;;;;;;;;;;;;23.86;100.00;99385.03;5068075;28;19964;-76
2022/08/26 09:52:11;;;;;;;;;;;;;;;23.84;100.00;99379.06;5068987;28;19932;-77
2022/08/26 09:54:38;;;;;;;;;;;;;;;23.04;100.00;99378.00;5068598;28;19985;-77
2022/08/26 09:57:40;;;;;;;;;;;;;;;22.96;100.00;99373.25;5068735;28;19936;-78
2022/08/26 10:00:29;;;;;;;;;;;;;;;22.55;100.00;99366.75;5009218;28;19961;-76
2022/08/26 10:02:57;;;;;;;;;;;;;;;22.13;100.00;99369.22;5024248;28;19957;-78
2022/08/26 10:05:42;;;;;;;;;;;;;;;22.32;100.00;99369.75;5027864;28;19937;-78
2022/08/26 10:08:27;;;;;;;;;;;;;;;22.29;100.00;99374.41;5027408;28;20027;-78
2022/08/26 10:11:00;;;;;;;;;;;;;;;21.28;100.00;99372.44;5027421;28;19929;-77
2022/08/26 10:13:31;;;;;;;;;;;;;;;21.10;100.00;99373.38;5026324;28;20405;-78
2022/08/26 10:16:13;;;;;;;;;;;;;;;21.85;100.00;99382.25;5026688;28;20364;-77
2022/08/26 10:18:57;;;;;;;;;;;;;;;21.98;100.00;99368.47;5026773;28;20372;-77
2022/08/26 10:21:31;;;;;;;;;;;;;;;21.81;100.00;99366.66;5026438;28;20016;-77
2022/08/26 10:23:59;;;;;;;;;;;;;;;21.58;100.00;99378.91;5026502;28;19925;-77
2022/08/26 10:26:49;;;;;;;;;;;;;;;21.74;100.00;99373.53;5026058;28;19929;-77
2022/08/26 10:29:24;;;;;;;;;;;;;;;22.37;100.00;99369.84;4967305;28;20818;-77
2022/08/26 10:31:58;;;;;;;;;;;;;;;21.09;100.00;99368.19;4967299;28;19926;-77
2022/08/26 10:34:25;;;;;;;;;;;;;;;21.37;100.00;99370.25;4978523;28;19937;-77
2022/08/26 10:37:13;;;;;;;;;;;;;;;21.83;100.00;99373.41;4988812;28;19926;-77
2022/08/26 10:39:41;;;;;;;;;;;;;;;21.63;100.00;99369.69;4989516;28;19933;-77
2022/08/26 10:42:14;;;;;;;;;;;;;;;21.23;100.00;99358.91;4975164;28;20274;-77
2022/08/26 10:44:43;;;;;;;;;;;;;;;21.77;100.00;99355.47;4992012;28;20015;-77
2022/08/26 10:47:18;;;;;;;;;;;;;;;22.26;100.00;99352.63;4975624;28;19926;-77
2022/08/26 10:49:48;;;;;;;;;;;;;;;22.52;100.00;99362.03;4975908;28;19937;-77
2022/08/26 10:52:41;;;;;;;;;;;;;;;22.78;100.00;99350.75;4991907;28;20373;-78
2022/08/26 10:55:15;;;;;;;;;;;;;;;22.28;100.00;99363.50;4991760;28;19926;-77
2022/08/26 10:57:49;;;;;;;;;;;;;;;22.05;100.00;99351.00;4975187;28;19925;-77
2022/08/26 11:03:13;;;;;;;;;;;;;;;22.78;100.00;99345.81;4975680;28;19925;-77
2022/08/26 11:05:40;;;;;;;;;;;;;;;23.10;100.00;99350.34;5009071;28;19931;-77
2022/08/26 11:08:18;;;;;;;;;;;;;;;22.59;100.00;99349.47;5072968;28;20011;-77
2022/08/26 11:10:51;;;;;;;;;;;;;;;22.29;100.00;99359.38;5073285;28;19928;-78
2022/08/26 11:13:18;;;;;;;;;;;;;;;21.49;100.00;99368.41;5074720;28;19943;-77
2022/08/26 11:15:51;;;;;;;;;;;;;;;22.46;100.00;99364.00;5067750;28;20623;-76
2022/08/26 11:18:36;;;;;;;;;;;;;;;22.27;100.00;99359.88;5068146;28;19925;-76
2022/08/26 11:21:24;;;;;;;;;;;;;;;21.60;100.00;99354.38;5068537;28;20006;-75
2022/08/26 11:23:52;;;;;;;;;;;;;;;21.30;100.00;99358.50;5072090;28;19924;-76
2022/08/26 11:26:32;;;;;;;;;;;;;;;21.50;100.00;99364.28;5073036;28;19964;-76
2022/08/26 11:28:59;;;;;;;;;;;;;;;21.73;100.00;99352.03;5072116;28;19924;-75
2022/08/26 11:31:27;;;;;;;;;;;;;;;21.73;100.00;99352.03;5072256;28;20015;-75
2022/08/26 11:34:02;;;;;;;;;;;;;;;22.34;100.00;99359.44;5071616;28;19925;-75
2022/08/26 11:36:40;;;;;;;;;;;;;;;22.82;100.00;99346.41;5071329;28;19964;-76
2022/08/26 11:39:13;;;;;;;;;;;;;;;23.17;100.00;99342.63;5074327;28;19924;-76
2022/08/26 11:41:44;;;;;;;;;;;;;;;22.97;100.00;99349.16;5076344;28;19924;-76
2022/08/26 11:44:15;;;;;;;;;;;;;;;23.10;100.00;99349.53;5076428;28;20417;-76
2022/08/26 11:46:50;;;;;;;;;;;;;;;23.26;100.00;99345.34;5076319;28;19924;-76
2022/08/26 11:49:18;;;;;;;;;;;;;;;23.26;100.00;99342.47;5076119;28;19924;-77
2022/08/26 11:51:45;;;;;;;;;;;;;;;23.69;100.00;99344.97;5075811;28;19925;-77
2022/08/26 11:54:16;;;;;;;;;;;;;;;23.52;100.00;99340.41;5076229;28;19944;-77
2022/08/26 11:56:44;;;;;;;;;;;;;;;23.84;100.00;99339.88;5076033;28;20291;-76
2022/08/26 11:59:14;;;;;;;;;;;;;;;23.48;100.00;99328.47;5076350;28;19952;-77
2022/08/26 12:01:43;;;;;;;;;;;;;;;22.79;100.00;99327.47;5075137;28;19929;-77
2022/08/26 12:04:12;;;;;;;;;;;;;;;22.57;100.00;99335.72;5076069;28;19929;-74
2022/08/26 12:06:50;;;;;;;;;;;;;;;22.21;100.00;99336.25;5075804;28;19924;-77
2022/08/26 12:09:21;;;;;;;;;;;;;;;22.50;100.00;99327.63;5074671;28;19939;-75
2022/08/26 12:11:49;;;;;;;;;;;;;;;22.56;100.00;99337.00;5074738;28;19925;-76
2022/08/26 12:14:21;;;;;;;;;;;;;;;23.17;100.00;99336.91;5057692;28;19974;-76
2022/08/26 12:16:49;;;;;;;;;;;;;;;22.99;100.00;99333.09;5075753;28;19924;-76
2022/08/26 12:19:34;;;;;;;;;;;;;;;23.22;100.00;99344.75;5074150;28;19928;-76
2022/08/26 12:22:20;;;;;;;;;;;;;;;23.16;100.00;99344.69;5074143;28;19932;-76
2022/08/26 12:24:50;;;;;;;;;;;;;;;22.91;100.00;99339.75;5075576;28;20280;-76
2022/08/26 12:27:20;;;;;;;;;;;;;;;22.75;100.00;99329.72;5074438;28;20260;-77
2022/08/26 12:30:02;;;;;;;;;;;;;;;23.19;100.00;99337.22;5075724;28;19924;-76
2022/08/26 12:32:32;;;;;;;;;;;;;;;23.77;100.00;99328.16;5074303;28;20453;-76
2022/08/26 12:35:01;;;;;;;;;;;;;;;23.57;100.00;99331.13;5075157;28;20387;-77
2022/08/26 12:37:37;;;;;;;;;;;;;;;23.34;100.00;99338.66;5075517;28;19954;-76
2022/08/26 12:40:23;;;;;;;;;;;;;;;23.78;100.00;99341.16;5074219;28;19925;-76
2022/08/26 12:42:50;;;;;;;;;;;;;;;23.44;100.00;99336.44;5075334;28;19996;-76
2022/08/26 12:45:27;;;;;;;;;;;;;;;23.50;100.00;99335.22;5075193;28;20379;-77
2022/08/26 12:47:56;;;;;;;;;;;;;;;23.44;100.00;99334.38;5075206;28;19947;-76
2022/08/26 12:50:26;;;;;;;;;;;;;;;23.84;100.00;99339.13;5074875;28;19931;-76
2022/08/26 12:53:02;;;;;;;;;;;;;;;22.16;100.00;99350.41;5075552;28;19960;-76
2022/08/26 12:55:46;;;;;;;;;;;;;;;22.50;100.00;99329.63;5074929;28;19959;-76
2022/08/26 12:58:14;;;;;;;;;;;;;;;22.09;100.00;99336.56;5074877;28;20047;-76